createdAt,value
2023-03-31T00:00:50.642Z,65.60
2023-03-31T00:04:05.643Z,65.68
2023-03-31T00:07:12.325Z,65.40
2023-03-31T00:10:20.052Z,64.39
2023-03-31T00:13:26.705Z,65.50
2023-03-31T00:16:34.047Z,64.83
2023-03-31T00:19:44.412Z,65.43
2023-03-31T00:22:50.899Z,65.51
2023-03-31T00:25:57.934Z,64.46
2023-03-31T00:29:06.112Z,64.86
2023-03-31T00:32:11.947Z,65.57
2023-03-31T00:35:22.921Z,65.18
2023-03-31T00:38:29.493Z,65.73
2023-03-31T00:41:36.128Z,66.09
2023-03-31T00:45:19.479Z,65.59
2023-03-31T00:48:28.006Z,66.38
2023-03-31T00:51:38.753Z,65.43
2023-03-31T00:54:52.977Z,65.36
2023-03-31T00:58:02.290Z,65.26
2023-03-31T01:01:09.195Z,65.08
2023-03-31T01:04:22.908Z,65.04
2023-03-31T01:07:44.540Z,65.44
2023-03-31T01:10:57.332Z,65.30
2023-03-31T01:14:05.671Z,64.59
2023-03-31T01:17:19.512Z,65.39
2023-03-31T01:20:47.479Z,65.34
2023-03-31T01:24:47.891Z,64.75
2023-03-31T01:28:15.718Z,64.89
2023-03-31T01:32:11.393Z,64.56
2023-03-31T01:36:11.883Z,64.75
2023-03-31T01:40:17.321Z,63.82
2023-03-31T01:43:36.151Z,64.20
2023-03-31T01:46:56.673Z,64.68
2023-03-31T01:50:13.455Z,64.46
2023-03-31T01:53:35.056Z,64.38
2023-03-31T01:56:55.602Z,64.45
2023-03-31T02:00:11.916Z,64.90
2023-03-31T02:03:33.455Z,64.35
2023-03-31T02:06:46.881Z,64.77
2023-03-31T02:10:02.322Z,64.61
2023-03-31T02:13:17.096Z,64.75
2023-03-31T02:16:32.605Z,64.83
2023-03-31T02:19:47.736Z,64.66
2023-03-31T02:23:00.453Z,64.70
2023-03-31T02:26:14.527Z,64.20
2023-03-31T02:29:25.633Z,64.13
2023-03-31T02:32:40.440Z,63.81
2023-03-31T02:35:47.732Z,63.63
2023-03-31T02:39:02.411Z,64.15
2023-03-31T02:42:10.247Z,64.07
2023-03-31T02:45:47.547Z,64.19
2023-03-31T02:49:00.934Z,64.09
2023-03-31T02:52:43.909Z,63.78
2023-03-31T02:56:22.577Z,64.57
2023-03-31T02:59:51.676Z,64.46
2023-03-31T03:03:26.981Z,63.87
2023-03-31T03:06:54.222Z,63.99
2023-03-31T03:10:11.681Z,63.88
2023-03-31T03:13:31.477Z,63.57
2023-03-31T03:16:46.973Z,63.70
2023-03-31T03:20:02.442Z,64.24
2023-03-31T03:23:09.013Z,63.73
2023-03-31T03:26:21.850Z,63.83
2023-03-31T03:29:28.617Z,63.41
2023-03-31T03:32:34.395Z,64.13
2023-03-31T03:35:43.751Z,63.34
2023-03-31T03:38:49.356Z,64.14
2023-03-31T03:41:56.002Z,63.01
2023-03-31T03:45:01.690Z,62.86
2023-03-31T03:48:08.875Z,62.88
2023-03-31T03:51:17.344Z,63.00
2023-03-31T03:54:23.955Z,62.92
2023-03-31T03:57:29.813Z,62.90
2023-03-31T04:00:37.032Z,62.74
2023-03-31T04:03:42.690Z,63.30
2023-03-31T04:06:52.253Z,62.70
2023-03-31T04:09:58.161Z,62.78
2023-03-31T04:13:05.518Z,63.04
2023-03-31T04:16:11.970Z,62.72
2023-03-31T04:19:22.177Z,62.84
2023-03-31T04:22:35.648Z,63.38
2023-03-31T04:25:46.629Z,63.14
2023-03-31T04:28:52.858Z,62.92
2023-03-31T04:32:00.300Z,62.94
2023-03-31T04:35:07.018Z,63.75
2023-03-31T04:38:18.942Z,63.58
2023-03-31T04:41:25.010Z,63.95
2023-03-31T04:44:32.062Z,63.75
2023-03-31T04:47:37.913Z,63.33
2023-03-31T04:50:44.911Z,63.54
2023-03-31T04:53:53.584Z,64.23
2023-03-31T04:57:00.669Z,63.68
2023-03-31T05:00:08.291Z,63.69
2023-03-31T05:03:14.991Z,63.66
2023-03-31T05:06:21.421Z,64.23
2023-03-31T05:09:30.665Z,63.99
2023-03-31T05:12:38.451Z,63.91
2023-03-31T05:15:45.403Z,63.98
2023-03-31T05:18:51.192Z,64.08
2023-03-31T05:21:57.672Z,64.00
2023-03-31T05:25:07.334Z,63.39
2023-03-31T05:28:14.091Z,64.09
2023-03-31T05:31:19.946Z,64.16
2023-03-31T05:34:26.623Z,64.25
2023-03-31T05:37:32.728Z,63.83
2023-03-31T05:40:42.330Z,63.47
2023-03-31T05:43:48.121Z,64.61
2023-03-31T05:46:54.683Z,64.38
2023-03-31T05:50:00.326Z,63.90
2023-03-31T05:53:06.999Z,64.56
2023-03-31T05:56:15.420Z,64.58
2023-03-31T05:59:22.546Z,63.93
2023-03-31T06:02:28.448Z,63.79
2023-03-31T06:05:35.097Z,64.14
2023-03-31T06:08:41.263Z,63.49
2023-03-31T06:11:50.827Z,62.87
2023-03-31T06:14:56.492Z,63.66
2023-03-31T06:18:03.685Z,62.41
2023-03-31T06:21:10.495Z,62.27
2023-03-31T06:24:17.295Z,62.68
2023-03-31T06:27:25.827Z,61.70
2023-03-31T06:30:32.307Z,61.98
2023-03-31T06:33:39.152Z,61.89
2023-03-31T06:36:46.040Z,61.52
2023-03-31T06:39:52.168Z,61.84
2023-03-31T06:43:01.756Z,61.14
2023-03-31T06:46:09.511Z,60.00
2023-03-31T06:49:16.692Z,59.42
2023-03-31T06:52:22.559Z,60.00
2023-03-31T06:55:29.372Z,59.37
2023-03-31T06:58:38.541Z,59.21
2023-03-31T07:01:46.419Z,58.28
2023-03-31T07:04:52.673Z,58.23
2023-03-31T07:08:02.569Z,58.47
2023-03-31T07:11:09.159Z,58.05
2023-03-31T07:14:18.939Z,57.69
2023-03-31T07:17:25.673Z,57.74
2023-03-31T07:20:34.177Z,57.12
2023-03-31T07:23:40.082Z,57.50
2023-03-31T07:26:46.853Z,57.68
2023-03-31T07:29:55.473Z,56.77
2023-03-31T07:33:02.866Z,56.94
2023-03-31T07:36:13.328Z,57.30
2023-03-31T07:39:21.105Z,56.92
2023-03-31T07:42:26.962Z,56.56
2023-03-31T07:45:38.871Z,56.75
2023-03-31T07:48:44.684Z,55.66
2023-03-31T07:51:51.176Z,55.93
2023-03-31T07:54:56.942Z,56.05
2023-03-31T07:58:03.474Z,56.00
2023-03-31T08:01:12.584Z,56.09
2023-03-31T08:04:19.339Z,55.19
2023-03-31T08:07:26.244Z,54.60
2023-03-31T08:10:33.115Z,54.01
2023-03-31T08:13:39.567Z,53.09
2023-03-31T08:16:49.304Z,52.63
2023-03-31T08:19:55.022Z,52.31
2023-03-31T08:23:01.778Z,51.95
2023-03-31T08:26:15.768Z,52.08
2023-03-31T08:29:24.374Z,52.26
2023-03-31T08:32:33.322Z,51.90
2023-03-31T08:35:39.845Z,51.85
2023-03-31T08:38:49.974Z,51.14
2023-03-31T08:42:11.424Z,50.46
2023-03-31T08:45:29.172Z,49.86
2023-03-31T08:48:49.161Z,49.99
2023-03-31T08:52:01.714Z,50.13
2023-03-31T08:55:17.965Z,49.77
2023-03-31T08:58:40.391Z,50.25
2023-03-31T09:02:00.012Z,50.31
2023-03-31T09:06:00.118Z,50.13
2023-03-31T09:09:19.897Z,49.86
2023-03-31T09:12:41.397Z,49.54
2023-03-31T09:16:01.950Z,50.04
2023-03-31T09:19:21.568Z,50.29
2023-03-31T09:22:38.959Z,50.42
2023-03-31T09:25:49.545Z,50.02
2023-03-31T09:29:02.724Z,49.71
2023-03-31T09:32:20.919Z,49.14
2023-03-31T09:35:33.933Z,49.80
2023-03-31T09:38:45.723Z,48.63
2023-03-31T09:41:57.305Z,49.22
2023-03-31T09:45:03.254Z,49.56
2023-03-31T09:48:19.675Z,49.46
2023-03-31T09:51:33.470Z,49.53
2023-03-31T09:54:53.000Z,49.21
2023-03-31T09:57:59.160Z,48.73
2023-03-31T10:01:10.813Z,49.06
2023-03-31T10:04:26.888Z,48.86
2023-03-31T10:07:34.497Z,48.32
2023-03-31T10:10:51.541Z,48.69
2023-03-31T10:14:06.950Z,48.13
2023-03-31T10:17:21.101Z,48.19
2023-03-31T10:20:41.350Z,47.71
2023-03-31T10:23:52.221Z,47.55
2023-03-31T10:27:01.784Z,47.22
2023-03-31T10:30:16.460Z,47.70
2023-03-31T10:33:29.647Z,47.25
2023-03-31T10:36:36.172Z,47.79
2023-03-31T10:39:42.828Z,47.49
2023-03-31T10:43:04.765Z,48.38
2023-03-31T10:46:13.053Z,48.16
2023-03-31T10:49:27.515Z,48.61
2023-03-31T10:52:47.934Z,48.08
2023-03-31T10:56:24.006Z,47.89
2023-03-31T10:59:58.960Z,47.42
2023-03-31T11:04:07.121Z,47.43
2023-03-31T11:07:35.447Z,46.83
2023-03-31T11:11:02.490Z,46.60
2023-03-31T11:14:24.218Z,47.03
2023-03-31T11:17:53.578Z,47.12
2023-03-31T11:21:17.347Z,45.58
2023-03-31T11:24:48.151Z,45.66
2023-03-31T11:28:33.563Z,46.51
2023-03-31T11:31:55.364Z,45.70
2023-03-31T11:35:39.097Z,46.01
2023-03-31T11:39:18.467Z,46.04
2023-03-31T11:42:32.307Z,46.36
2023-03-31T11:45:47.742Z,46.52
2023-03-31T11:49:04.113Z,46.32
2023-03-31T11:52:22.248Z,45.79
2023-03-31T11:55:34.955Z,45.82
2023-03-31T11:58:49.789Z,46.32
2023-03-31T12:02:13.891Z,45.59
2023-03-31T12:05:24.257Z,45.67
2023-03-31T12:08:47.276Z,45.51
2023-03-31T12:12:04.708Z,45.11
2023-03-31T12:15:28.421Z,44.83
2023-03-31T12:18:47.131Z,45.33
2023-03-31T12:21:59.877Z,44.79
2023-03-31T12:25:09.824Z,44.71
2023-03-31T12:28:17.544Z,44.87
2023-03-31T12:31:30.969Z,43.42
2023-03-31T12:34:53.160Z,43.58
2023-03-31T12:38:40.172Z,42.53
2023-03-31T12:42:18.766Z,42.07
2023-03-31T12:45:32.887Z,42.42
2023-03-31T12:49:09.734Z,42.48
2023-03-31T12:52:29.920Z,41.89
2023-03-31T12:55:43.779Z,42.54
2023-03-31T12:58:52.453Z,42.40
2023-03-31T13:02:29.731Z,42.84
2023-03-31T13:05:51.425Z,41.55
2023-03-31T13:09:01.359Z,40.83
2023-03-31T13:12:16.580Z,40.44
2023-03-31T13:15:30.482Z,40.80
2023-03-31T13:18:38.771Z,41.30
2023-03-31T13:21:58.215Z,42.03
2023-03-31T13:25:46.051Z,42.40
2023-03-31T13:29:25.326Z,42.25
2023-03-31T13:32:33.945Z,42.31
2023-03-31T13:35:44.886Z,42.34
2023-03-31T13:39:13.293Z,42.21
2023-03-31T13:43:14.151Z,42.68
2023-03-31T13:46:59.706Z,41.86
2023-03-31T13:50:59.469Z,42.06
2023-03-31T13:54:54.090Z,41.48
2023-03-31T13:59:07.533Z,42.11
2023-03-31T14:02:53.151Z,43.19
2023-03-31T14:06:15.782Z,43.94
2023-03-31T14:09:32.841Z,45.28
2023-03-31T14:12:41.636Z,46.72
2023-03-31T14:15:54.433Z,47.43
2023-03-31T14:19:32.580Z,49.18
2023-03-31T14:22:59.816Z,49.93
2023-03-31T14:26:22.801Z,50.82
2023-03-31T14:29:44.315Z,51.49
2023-03-31T14:33:14.628Z,52.20
2023-03-31T14:36:39.159Z,53.19
2023-03-31T14:39:53.488Z,53.97
2023-03-31T14:42:59.933Z,53.59
2023-03-31T14:46:10.377Z,54.89
2023-03-31T14:49:25.221Z,55.28
2023-03-31T14:52:36.524Z,55.46
2023-03-31T14:55:57.866Z,56.21
2023-03-31T14:59:08.998Z,57.10
2023-03-31T15:02:25.337Z,56.33
2023-03-31T15:05:37.477Z,56.70
2023-03-31T15:08:44.931Z,56.28
2023-03-31T15:12:03.792Z,56.64
2023-03-31T15:15:11.716Z,56.76
2023-03-31T15:18:20.619Z,57.04
2023-03-31T15:21:31.655Z,57.29
2023-03-31T15:24:38.307Z,56.84
2023-03-31T15:27:55.809Z,57.47
2023-03-31T15:34:34.998Z,57.33
2023-03-31T15:37:47.038Z,57.78
2023-03-31T15:40:59.921Z,58.24
2023-03-31T15:44:38.952Z,57.92
2023-03-31T15:47:55.631Z,57.67
2023-03-31T15:51:21.108Z,57.75
2023-03-31T15:54:39.386Z,57.74
2023-03-31T15:57:48.367Z,57.40
2023-03-31T16:01:09.007Z,57.09
2023-03-31T16:04:19.089Z,57.42
2023-03-31T16:07:30.275Z,56.69
2023-03-31T16:10:37.443Z,56.81
2023-03-31T16:13:52.457Z,56.52
2023-03-31T16:17:10.966Z,56.47
2023-03-31T16:20:26.049Z,56.24
2023-03-31T16:23:41.619Z,55.66
2023-03-31T16:26:48.225Z,55.71
2023-03-31T16:30:09.339Z,56.01
2023-03-31T16:33:21.399Z,55.41
2023-03-31T16:36:28.524Z,55.70
2023-03-31T16:39:34.802Z,55.40
2023-03-31T16:42:41.673Z,55.55
2023-03-31T16:45:59.760Z,55.61
2023-03-31T16:49:09.308Z,55.83
2023-03-31T16:52:15.292Z,56.18
2023-03-31T16:55:22.137Z,55.43
2023-03-31T16:58:29.773Z,56.01
2023-03-31T17:01:36.501Z,55.77
2023-03-31T17:04:45.223Z,55.89
2023-03-31T17:07:51.894Z,56.04
2023-03-31T17:11:03.599Z,56.14
2023-03-31T17:14:11.242Z,56.60
2023-03-31T17:17:18.092Z,56.16
2023-03-31T17:20:27.687Z,55.33
2023-03-31T17:23:33.877Z,55.52
2023-03-31T17:26:40.460Z,55.46
2023-03-31T17:29:46.213Z,55.50
2023-03-31T17:32:53.163Z,55.43
2023-03-31T17:36:05.013Z,55.13
2023-03-31T17:39:11.641Z,55.72
2023-03-31T17:42:19.427Z,57.97
2023-03-31T17:45:26.050Z,60.10
2023-03-31T17:48:34.391Z,60.72
2023-03-31T17:51:44.433Z,61.03
2023-03-31T17:54:50.950Z,61.43
2023-03-31T17:57:57.844Z,62.54
2023-03-31T18:01:04.178Z,64.14
2023-03-31T18:04:11.649Z,64.51
2023-03-31T18:07:23.552Z,63.92
2023-03-31T18:10:30.451Z,64.22
2023-03-31T18:13:38.390Z,63.93
2023-03-31T18:16:45.075Z,63.98
2023-03-31T18:19:51.163Z,63.34
2023-03-31T18:23:00.884Z,63.74
2023-03-31T18:26:10.386Z,64.10
2023-03-31T18:29:17.196Z,63.13
2023-03-31T18:32:23.428Z,63.25
2023-03-31T18:35:30.209Z,63.13
2023-03-31T18:38:40.197Z,63.80
2023-03-31T18:41:52.646Z,62.52
2023-03-31T18:44:58.623Z,63.02
2023-03-31T18:48:05.699Z,63.53
2023-03-31T18:51:12.101Z,63.15
2023-03-31T18:54:22.205Z,63.22
2023-03-31T18:57:28.440Z,62.30
2023-03-31T19:00:35.337Z,62.15
2023-03-31T19:03:42.870Z,63.20
2023-03-31T19:06:50.418Z,62.54
2023-03-31T19:09:59.479Z,62.34
2023-03-31T19:13:06.569Z,62.89
2023-03-31T19:16:13.535Z,62.53
2023-03-31T19:19:20.358Z,62.13
2023-03-31T19:22:28.054Z,62.12
2023-03-31T19:25:37.712Z,62.19
2023-03-31T19:28:43.947Z,62.59
2023-03-31T19:31:50.866Z,61.96
2023-03-31T19:34:59.139Z,62.39
2023-03-31T19:38:06.266Z,62.83
2023-03-31T19:41:14.988Z,61.64
2023-03-31T19:44:21.976Z,62.45
2023-03-31T19:47:27.947Z,62.17
2023-03-31T19:50:35.281Z,61.26
2023-03-31T19:53:42.299Z,61.41
2023-03-31T19:56:52.295Z,61.54
2023-03-31T19:59:58.391Z,61.98
2023-03-31T20:03:05.658Z,61.18
2023-03-31T20:06:15.485Z,61.05
2023-03-31T20:09:22.464Z,61.79
2023-03-31T20:12:31.143Z,61.04
2023-03-31T20:15:40.435Z,61.21
2023-03-31T20:18:48.445Z,61.08
2023-03-31T20:21:58.061Z,60.59
2023-03-31T20:25:03.799Z,60.82
2023-03-31T20:28:13.282Z,60.08
2023-03-31T20:31:22.733Z,60.04
2023-03-31T20:34:29.376Z,60.18
2023-03-31T20:37:35.329Z,60.01
2023-03-31T20:40:41.889Z,60.28
2023-03-31T20:43:51.412Z,58.92
2023-03-31T20:46:59.470Z,58.52
2023-03-31T20:50:06.100Z,58.68
2023-03-31T20:53:12.978Z,58.65
2023-03-31T20:56:22.041Z,58.74
2023-03-31T20:59:31.619Z,58.84
2023-03-31T21:02:38.168Z,58.51
2023-03-31T21:05:46.924Z,58.72
2023-03-31T21:08:57.640Z,59.19
2023-03-31T21:12:05.287Z,58.58
2023-03-31T21:15:15.284Z,58.55
2023-03-31T21:18:21.961Z,58.94
2023-03-31T21:21:28.085Z,59.00
2023-03-31T21:24:35.454Z,58.52
2023-03-31T21:27:41.298Z,58.45
2023-03-31T21:30:59.784Z,59.55
2023-03-31T21:34:06.071Z,59.15
2023-03-31T21:37:12.729Z,59.37
2023-03-31T21:40:19.087Z,58.99
2023-03-31T21:43:27.108Z,58.71
2023-03-31T21:46:37.092Z,59.12
2023-03-31T21:49:43.998Z,58.60
2023-03-31T21:52:50.047Z,58.45
2023-03-31T21:55:57.666Z,58.67
2023-03-31T21:59:04.598Z,58.20
2023-03-31T22:02:13.988Z,58.17
2023-03-31T22:05:20.224Z,58.87
2023-03-31T22:08:27.573Z,58.38
2023-03-31T22:11:33.316Z,58.50
2023-03-31T22:14:40.839Z,58.61
2023-03-31T22:17:49.860Z,58.20
2023-03-31T22:20:57.426Z,57.97
2023-03-31T22:24:05.031Z,57.44
2023-03-31T22:27:11.855Z,57.70
2023-03-31T22:30:18.505Z,57.43
2023-03-31T22:33:27.985Z,57.32
2023-03-31T22:36:33.748Z,57.41
2023-03-31T22:39:40.357Z,57.61
2023-03-31T22:42:46.255Z,57.67
2023-03-31T22:45:53.163Z,58.00
2023-03-31T22:49:01.725Z,58.10
2023-03-31T22:52:08.934Z,57.84
2023-03-31T22:55:14.599Z,57.98
2023-03-31T22:58:21.882Z,58.50
2023-03-31T23:01:27.760Z,58.62
2023-03-31T23:04:37.534Z,58.98
2023-03-31T23:07:43.505Z,58.62
2023-03-31T23:10:59.040Z,59.36
2023-03-31T23:14:05.242Z,59.00
2023-03-31T23:17:12.713Z,59.18
2023-03-31T23:20:21.861Z,58.69
2023-03-31T23:23:28.869Z,59.22
2023-03-31T23:26:37.631Z,59.05
2023-03-31T23:29:44.227Z,58.54
2023-03-31T23:32:50.226Z,59.02
2023-03-31T23:36:03.550Z,58.43
2023-03-31T23:39:10.937Z,58.23
2023-03-31T23:42:20.943Z,58.98
2023-03-31T23:45:26.958Z,58.76
2023-03-31T23:48:34.439Z,59.27
2023-03-31T23:51:43.137Z,58.87
2023-03-31T23:54:49.865Z,59.54
2023-03-31T23:57:55.681Z,58.96
